Time;durP1;ratioP1;P1;durP2;ratioP2;P2;SDS_P1;SDS_P2;PMS_P1;PMS_P2;Temp;Humidity;BMP_temperature;BMP_pressure;BME280_temperature;BME280_humidity;BME280_pressure;Samples;Min_cycle;Max_cycle;Signal;HPM_P1;HPM_P2
2023/10/08 00:01:55;;;;;;;1.50;0.52;;;;;;;;;;5055510;28;20106;-84
2023/10/08 00:04:22;;;;;;;3.08;0.95;;;;;;;;;;5079810;28;20061;-84
2023/10/08 00:06:49;;;;;;;1.65;0.77;;;;;;;;;;5063929;28;20075;-84
2023/10/08 00:09:15;;;;;;;1.52;0.60;;;;;;;;;;5072800;28;20033;-85
2023/10/08 00:11:43;;;;;;;8.65;1.52;;;;;;;;;;5066040;28;20064;-84
2023/10/08 00:14:09;;;;;;;4.18;0.80;;;;;;;;;;5050802;28;20053;-86
2023/10/08 00:16:38;;;;;;;2.85;0.80;;;;;;;;;;5063577;28;20095;-84
2023/10/08 00:19:08;;;;;;;7.45;0.70;;;;;;;;;;5080017;28;20067;-85
2023/10/08 00:21:37;;;;;;;3.05;0.82;;;;;;;;;;5082396;28;20050;-85
2023/10/08 00:24:06;;;;;;;3.63;0.93;;;;;;;;;;5064667;28;20530;-84
2023/10/08 00:26:34;;;;;;;4.10;1.20;;;;;;;;;;5049947;28;20028;-84
2023/10/08 00:29:06;;;;;;;3.55;0.90;;;;;;;;;;5049404;28;20021;-84
2023/10/08 00:31:38;;;;;;;2.83;0.60;;;;;;;;;;5082365;28;20131;-85
2023/10/08 00:34:11;;;;;;;2.40;0.68;;;;;;;;;;5064015;28;20130;-84
2023/10/08 00:36:38;;;;;;;2.65;0.70;;;;;;;;;;5066207;28;20549;-85
2023/10/08 00:39:10;;;;;;;2.55;1.00;;;;;;;;;;5066005;28;20076;-85
2023/10/08 00:41:38;;;;;;;4.00;0.80;;;;;;;;;;5084397;28;20433;-85
2023/10/08 00:44:07;;;;;;;4.18;0.85;;;;;;;;;;5048420;28;20048;-85
2023/10/08 00:46:42;;;;;;;3.38;0.88;;;;;;;;;;5069517;28;20024;-85
2023/10/08 00:49:24;;;;;;;6.18;0.85;;;;;;;;;;5048666;28;20079;-85
2023/10/08 00:52:26;;;;;;;4.90;0.90;;;;;;;;;;5064254;28;20032;-85
2023/10/08 00:57:29;;;;;;;7.75;1.55;;;;;;;;;;5078956;28;20090;-84
2023/10/08 00:59:58;;;;;;;2.50;1.20;;;;;;;;;;5047447;28;20045;-84
2023/10/08 01:02:30;;;;;;;8.00;1.23;;;;;;;;;;5050918;28;20087;-84
2023/10/08 01:04:56;;;;;;;6.45;1.30;;;;;;;;;;5078759;28;20072;-84
2023/10/08 01:07:23;;;;;;;6.07;1.10;;;;;;;;;;5065446;28;20527;-84
2023/10/08 01:09:59;;;;;;;6.30;0.88;;;;;;;;;;5062901;28;20127;-84
2023/10/08 01:12:35;;;;;;;7.47;1.00;;;;;;;;;;5065246;28;20119;-84
2023/10/08 01:15:47;;;;;;;7.63;1.30;;;;;;;;;;5068709;28;20187;-84
2023/10/08 01:18:00;;;;;;;13.23;1.90;;;;;;;;;;5062172;28;20078;-85
2023/10/08 01:20:34;;;;;;;7.65;1.48;;;;;;;;;;5053637;28;20040;-85
2023/10/08 01:23:10;;;;;;;6.30;1.35;;;;;;;;;;5083690;28;20068;-84
2023/10/08 01:25:50;;;;;;;10.80;1.52;;;;;;;;;;5086061;28;20376;-84
2023/10/08 01:28:27;;;;;;;7.63;1.20;;;;;;;;;;5065062;28;20037;-85
2023/10/08 01:30:54;;;;;;;6.35;1.35;;;;;;;;;;5065057;28;20380;-85
2023/10/08 01:33:22;;;;;;;6.90;1.20;;;;;;;;;;5054989;28;20097;-85
2023/10/08 01:35:54;;;;;;;8.23;1.25;;;;;;;;;;5068749;28;20049;-84
2023/10/08 01:38:27;;;;;;;8.77;1.25;;;;;;;;;;5086008;28;20060;-85
2023/10/08 01:40:53;;;;;;;8.77;1.83;;;;;;;;;;5065889;28;20418;-85
2023/10/08 01:43:20;;;;;;;9.38;1.33;;;;;;;;;;5068289;28;20072;-84
2023/10/08 01:45:51;;;;;;;8.15;1.65;;;;;;;;;;5086596;28;20056;-84
2023/10/08 01:48:28;;;;;;;7.88;1.27;;;;;;;;;;5046462;28;20051;-85
2023/10/08 01:51:04;;;;;;;9.02;1.42;;;;;;;;;;5066736;28;20201;-85
2023/10/08 01:53:31;;;;;;;9.43;2.00;;;;;;;;;;5068724;28;20127;-84
2023/10/08 01:55:58;;;;;;;7.32;1.50;;;;;;;;;;5065819;28;20499;-84
2023/10/08 01:58:24;;;;;;;12.45;1.80;;;;;;;;;;5052798;28;20375;-84
2023/10/08 02:00:52;;;;;;;7.00;1.50;;;;;;;;;;5087009;28;20048;-85
2023/10/08 02:03:19;;;;;;;8.82;1.60;;;;;;;;;;5068759;28;20060;-84
2023/10/08 02:05:48;;;;;;;14.27;1.58;;;;;;;;;;5067544;28;20071;-84
2023/10/08 02:08:16;;;;;;;8.32;1.50;;;;;;;;;;5070347;28;20043;-84
2023/10/08 02:10:46;;;;;;;5.60;1.20;;;;;;;;;;5068050;28;20072;-85
2023/10/08 02:13:13;;;;;;;7.80;2.00;;;;;;;;;;5087579;28;20102;-85
2023/10/08 02:15:47;;;;;;;6.28;1.58;;;;;;;;;;5068461;28;20071;-85
2023/10/08 02:18:13;;;;;;;9.02;1.45;;;;;;;;;;5069792;28;20043;-85
2023/10/08 02:20:40;;;;;;;17.20;2.35;;;;;;;;;;5054608;28;20040;-85
2023/10/08 02:23:06;;;;;;;4.63;1.48;;;;;;;;;;5053274;28;20144;-85
2023/10/08 02:25:37;;;;;;;14.32;1.90;;;;;;;;;;5071186;28;20044;-84
2023/10/08 02:28:04;;;;;;;12.75;1.45;;;;;;;;;;5068878;28;20044;-84
2023/10/08 02:30:30;;;;;;;10.57;2.00;;;;;;;;;;5069086;28;20373;-85
2023/10/08 02:32:58;;;;;;;4.47;1.40;;;;;;;;;;5071334;28;20047;-84
2023/10/08 02:35:25;;;;;;;10.13;2.30;;;;;;;;;;5067332;28;20441;-85
2023/10/08 02:37:52;;;;;;;7.88;1.63;;;;;;;;;;5034895;28;20041;-85
2023/10/08 02:40:27;;;;;;;8.50;1.42;;;;;;;;;;5054505;28;20107;-84
2023/10/08 02:42:58;;;;;;;6.30;1.23;;;;;;;;;;5065604;28;20044;-84
2023/10/08 02:45:27;;;;;;;6.53;1.63;;;;;;;;;;5049942;28;20051;-85
2023/10/08 02:47:55;;;;;;;11.85;2.53;;;;;;;;;;5066018;28;20098;-85
2023/10/08 02:50:22;;;;;;;5.35;1.48;;;;;;;;;;5065157;28;20391;-84
2023/10/08 02:52:50;;;;;;;8.32;1.60;;;;;;;;;;5066474;28;20048;-85
2023/10/08 02:55:42;;;;;;;8.35;1.63;;;;;;;;;;5068352;28;20071;-84
2023/10/08 02:58:03;;;;;;;6.25;2.00;;;;;;;;;;5064079;28;20556;-85
2023/10/08 03:00:30;;;;;;;7.53;1.70;;;;;;;;;;5064274;28;20744;-85
2023/10/08 03:03:01;;;;;;;10.15;1.40;;;;;;;;;;5071200;28;20033;-85
2023/10/08 03:05:35;;;;;;;8.90;1.77;;;;;;;;;;5066858;28;20033;-84
2023/10/08 03:08:02;;;;;;;10.43;2.35;;;;;;;;;;5080902;28;20099;-84
2023/10/08 03:10:35;;;;;;;9.05;1.50;;;;;;;;;;5071042;28;20028;-85
2023/10/08 03:13:05;;;;;;;7.53;1.40;;;;;;;;;;5081756;28;20068;-85
2023/10/08 03:15:38;;;;;;;10.90;2.08;;;;;;;;;;5065788;28;20048;-85
2023/10/08 03:18:14;;;;;;;9.60;1.83;;;;;;;;;;5066507;28;20051;-85
2023/10/08 03:20:45;;;;;;;8.98;2.05;;;;;;;;;;5050021;28;20151;-85
2023/10/08 03:23:47;;;;;;;10.93;1.27;;;;;;;;;;5067747;28;20047;-84
2023/10/08 03:26:32;;;;;;;7.38;1.40;;;;;;;;;;5062259;28;20046;-84
2023/10/08 03:28:59;;;;;;;3.83;1.35;;;;;;;;;;5069458;28;20062;-84
2023/10/08 03:31:49;;;;;;;5.95;1.58;;;;;;;;;;5086772;28;20048;-85
2023/10/08 03:34:18;;;;;;;5.57;1.42;;;;;;;;;;5063401;28;20040;-84
2023/10/08 03:36:44;;;;;;;8.35;1.40;;;;;;;;;;5070348;28;20069;-84
2023/10/08 03:39:14;;;;;;;11.10;1.70;;;;;;;;;;5055490;28;20052;-84
2023/10/08 03:41:40;;;;;;;8.35;1.65;;;;;;;;;;5086221;28;20047;-84
2023/10/08 03:44:13;;;;;;;4.65;1.30;;;;;;;;;;5068411;28;20025;-84
2023/10/08 03:46:42;;;;;;;8.18;1.40;;;;;;;;;;5071341;28;20029;-84
2023/10/08 03:49:25;;;;;;;9.13;1.63;;;;;;;;;;5072366;28;20036;-84
2023/10/08 03:51:57;;;;;;;9.57;1.70;;;;;;;;;;5056331;28;20032;-84
2023/10/08 03:54:29;;;;;;;12.30;1.52;;;;;;;;;;5068475;28;20044;-84
2023/10/08 03:56:57;;;;;;;10.07;2.10;;;;;;;;;;5083140;28;20071;-84
2023/10/08 04:01:59;;;;;;;16.70;2.10;;;;;;;;;;5080112;28;20041;-84
2023/10/08 04:04:48;;;;;;;8.25;2.25;;;;;;;;;;5069324;28;20078;-85
2023/10/08 04:12:35;;;;;;;12.55;2.15;;;;;;;;;;5082526;28;20070;-84
2023/10/08 04:15:07;;;;;;;6.30;1.20;;;;;;;;;;5069512;28;20175;-85
2023/10/08 04:17:43;;;;;;;13.35;1.65;;;;;;;;;;5049201;28;20037;-84
2023/10/08 04:22:59;;;;;;;7.60;1.50;;;;;;;;;;5084801;28;20327;-84
2023/10/08 04:25:27;;;;;;;10.13;1.40;;;;;;;;;;5079995;28;20043;-84
2023/10/08 04:27:54;;;;;;;15.48;2.05;;;;;;;;;;5066496;28;20040;-85
2023/10/08 04:30:22;;;;;;;7.18;1.30;;;;;;;;;;5074526;28;20048;-84
2023/10/08 04:32:52;;;;;;;12.48;2.58;;;;;;;;;;5055015;28;20086;-84
2023/10/08 04:35:25;;;;;;;7.07;1.35;;;;;;;;;;5072491;28;20135;-84
2023/10/08 04:37:52;;;;;;;10.90;1.60;;;;;;;;;;5053854;28;20048;-84
2023/10/08 04:40:23;;;;;;;10.10;2.00;;;;;;;;;;5076014;28;20085;-85
2023/10/08 04:42:49;;;;;;;3.80;1.35;;;;;;;;;;5068710;28;20060;-84
2023/10/08 04:45:16;;;;;;;4.30;1.20;;;;;;;;;;5076868;28;20044;-84
2023/10/08 04:47:44;;;;;;;5.28;1.20;;;;;;;;;;5061342;28;20792;-85
2023/10/08 04:50:14;;;;;;;6.03;1.80;;;;;;;;;;5063725;28;20045;-85
2023/10/08 04:53:07;;;;;;;8.10;1.50;;;;;;;;;;5078599;28;20063;-84
2023/10/08 04:55:30;;;;;;;12.52;1.70;;;;;;;;;;5074678;28;20040;-84
2023/10/08 04:57:58;;;;;;;8.98;1.40;;;;;;;;;;5063139;28;20041;-84
2023/10/08 05:00:43;;;;;;;9.00;1.50;;;;;;;;;;5079099;28;20045;-83
2023/10/08 05:03:16;;;;;;;10.25;1.55;;;;;;;;;;5093528;28;20083;-83
2023/10/08 05:05:55;;;;;;;6.57;1.77;;;;;;;;;;5080068;28;20410;-84
2023/10/08 05:08:32;;;;;;;7.65;1.27;;;;;;;;;;5059724;28;20094;-83
2023/10/08 05:11:15;;;;;;;8.48;1.80;;;;;;;;;;5075054;28;20047;-83
2023/10/08 05:14:02;;;;;;;7.57;1.70;;;;;;;;;;5081645;28;20052;-83
2023/10/08 05:16:44;;;;;;;7.10;1.38;;;;;;;;;;5082717;28;20119;-84
2023/10/08 05:22:17;;;;;;;11.35;1.33;;;;;;;;;;5070463;28;20098;-85
2023/10/08 05:24:51;;;;;;;11.88;1.98;;;;;;;;;;5087965;28;20419;-84
2023/10/08 05:30:16;;;;;;;7.00;1.90;;;;;;;;;;5058257;28;20150;-85
2023/10/08 05:35:48;;;;;;;9.20;1.55;;;;;;;;;;5088779;28;20045;-84
2023/10/08 05:38:22;;;;;;;9.05;1.30;;;;;;;;;;5047199;28;20044;-84
2023/10/08 05:43:48;;;;;;;6.82;1.63;;;;;;;;;;5074295;28;19920;-84
2023/10/08 05:46:47;;;;;;;7.47;1.50;;;;;;;;;;5076257;28;20052;-84
2023/10/08 06:03:07;;;;;;;7.03;1.45;;;;;;;;;;5089880;28;20055;-84
2023/10/08 06:05:43;;;;;;;8.25;1.67;;;;;;;;;;5071700;28;20132;-84
2023/10/08 06:08:14;;;;;;;8.75;1.17;;;;;;;;;;5074220;28;20070;-84
2023/10/08 06:13:09;;;;;;;9.32;2.08;;;;;;;;;;5091437;28;20056;-84
2023/10/08 06:18:18;;;;;;;5.15;1.55;;;;;;;;;;5074199;28;20051;-83
2023/10/08 06:20:44;;;;;;;8.40;1.27;;;;;;;;;;5075965;28;20048;-84
2023/10/08 06:23:18;;;;;;;5.13;1.50;;;;;;;;;;5072644;28;20037;-84
2023/10/08 06:25:47;;;;;;;5.13;1.50;;;;;;;;;;5074460;28;20048;-83
2023/10/08 06:28:14;;;;;;;5.68;1.73;;;;;;;;;;5075438;28;20464;-84
2023/10/08 06:30:41;;;;;;;9.20;1.85;;;;;;;;;;5072959;28;20037;-84
2023/10/08 06:33:10;;;;;;;7.60;1.67;;;;;;;;;;5056373;28;20040;-85
2023/10/08 06:35:36;;;;;;;10.40;1.55;;;;;;;;;;5078074;28;20052;-84
2023/10/08 06:38:09;;;;;;;8.80;1.35;;;;;;;;;;5072792;28;20044;-84
2023/10/08 06:43:12;;;;;;;10.60;1.75;;;;;;;;;;5086450;28;20059;-84
2023/10/08 06:45:39;;;;;;;8.90;1.70;;;;;;;;;;5075267;28;20052;-85
2023/10/08 06:48:06;;;;;;;11.73;1.65;;;;;;;;;;5066005;28;20291;-85
2023/10/08 06:50:40;;;;;;;12.38;2.30;;;;;;;;;;5073409;28;20067;-84
2023/10/08 06:53:07;;;;;;;11.75;1.63;;;;;;;;;;5068542;28;20088;-84
2023/10/08 06:55:35;;;;;;;7.35;1.52;;;;;;;;;;5094459;28;20067;-84
2023/10/08 06:58:05;;;;;;;7.40;1.92;;;;;;;;;;5054387;28;20047;-84
2023/10/08 07:00:51;;;;;;;6.22;1.58;;;;;;;;;;5062705;28;20052;-84
2023/10/08 07:03:17;;;;;;;17.35;1.63;;;;;;;;;;5073151;28;20095;-84
2023/10/08 07:06:33;;;;;;;10.45;2.25;;;;;;;;;;5058163;28;20028;-85
2023/10/08 07:08:35;;;;;;;10.07;1.85;;;;;;;;;;5059645;28;20108;-84
2023/10/08 07:11:08;;;;;;;12.77;1.98;;;;;;;;;;5060809;28;20052;-84
2023/10/08 07:13:37;;;;;;;10.57;1.70;;;;;;;;;;5094958;28;20044;-84
2023/10/08 07:16:04;;;;;;;9.90;2.00;;;;;;;;;;5078556;28;20321;-85
2023/10/08 07:18:33;;;;;;;7.88;1.52;;;;;;;;;;5076588;28;20051;-84
2023/10/08 07:21:03;;;;;;;12.05;1.92;;;;;;;;;;5077937;28;20033;-84
2023/10/08 07:23:29;;;;;;;9.85;1.67;;;;;;;;;;5061683;28;20086;-84
2023/10/08 07:26:01;;;;;;;11.35;2.10;;;;;;;;;;5078696;28;20046;-84
2023/10/08 07:28:30;;;;;;;10.88;1.95;;;;;;;;;;5075226;28;20127;-85
2023/10/08 07:30:57;;;;;;;9.65;1.75;;;;;;;;;;5090421;28;20048;-84
2023/10/08 07:33:25;;;;;;;10.40;2.03;;;;;;;;;;5078658;28;20044;-85
2023/10/08 07:35:57;;;;;;;10.23;1.73;;;;;;;;;;5073653;28;20040;-84
2023/10/08 07:38:23;;;;;;;14.30;2.10;;;;;;;;;;5072436;28;20052;-85
2023/10/08 07:40:49;;;;;;;12.00;1.90;;;;;;;;;;5076228;28;20045;-84
2023/10/08 07:43:20;;;;;;;12.10;1.73;;;;;;;;;;5052864;28;20045;-84
2023/10/08 07:45:46;;;;;;;8.18;1.63;;;;;;;;;;5076133;28;20160;-84
2023/10/08 07:48:14;;;;;;;10.35;1.35;;;;;;;;;;5089319;28;20101;-85
2023/10/08 07:50:46;;;;;;;9.40;1.48;;;;;;;;;;5076307;28;20050;-84
2023/10/08 07:53:19;;;;;;;11.18;2.13;;;;;;;;;;5076598;28;20052;-84
2023/10/08 07:55:47;;;;;;;11.23;1.87;;;;;;;;;;5068779;28;20048;-84
2023/10/08 07:58:14;;;;;;;12.73;2.22;;;;;;;;;;5086337;28;20044;-84
2023/10/08 08:00:41;;;;;;;7.18;1.58;;;;;;;;;;5069710;28;20091;-84
2023/10/08 08:03:07;;;;;;;7.57;1.70;;;;;;;;;;5073891;28;20052;-84
2023/10/08 08:05:34;;;;;;;18.60;1.90;;;;;;;;;;5072582;28;20037;-84
2023/10/08 08:08:05;;;;;;;9.60;1.67;;;;;;;;;;5073883;28;20048;-85
2023/10/08 08:10:36;;;;;;;9.63;1.73;;;;;;;;;;5070977;28;20562;-84
2023/10/08 08:13:05;;;;;;;5.47;1.83;;;;;;;;;;5068118;28;20052;-85
2023/10/08 08:15:33;;;;;;;8.30;1.60;;;;;;;;;;5067947;28;20048;-85
2023/10/08 08:18:00;;;;;;;15.80;2.13;;;;;;;;;;5049836;28;20044;-85
2023/10/08 08:20:35;;;;;;;6.65;2.13;;;;;;;;;;5043321;28;20037;-84
2023/10/08 08:23:06;;;;;;;5.65;1.33;;;;;;;;;;5072360;28;20044;-86
2023/10/08 08:28:28;;;;;;;9.65;1.92;;;;;;;;;;5091118;28;20045;-84
2023/10/08 08:30:57;;;;;;;8.48;1.65;;;;;;;;;;5056545;28;20043;-86
2023/10/08 08:33:23;;;;;;;11.90;1.77;;;;;;;;;;5054345;28;20103;-84
2023/10/08 08:36:00;;;;;;;8.18;1.73;;;;;;;;;;5069759;28;20056;-85
2023/10/08 08:38:26;;;;;;;9.73;1.70;;;;;;;;;;5068611;28;20041;-85
2023/10/08 08:40:53;;;;;;;9.52;1.60;;;;;;;;;;5069740;28;20040;-85
2023/10/08 08:43:19;;;;;;;6.10;1.83;;;;;;;;;;5070898;28;20052;-84
2023/10/08 08:45:49;;;;;;;11.45;1.90;;;;;;;;;;5071388;28;20040;-84
2023/10/08 08:48:17;;;;;;;6.95;1.40;;;;;;;;;;5065659;28;20040;-84
2023/10/08 08:50:44;;;;;;;11.25;1.70;;;;;;;;;;5074487;28;20499;-84
2023/10/08 08:53:11;;;;;;;18.25;2.55;;;;;;;;;;5069299;28;20064;-84
2023/10/08 08:55:39;;;;;;;7.38;1.23;;;;;;;;;;5070315;28;20052;-84
2023/10/08 08:58:10;;;;;;;7.95;1.60;;;;;;;;;;5060601;28;20059;-83
2023/10/08 09:00:38;;;;;;;8.98;1.77;;;;;;;;;;5076527;28;20024;-85
2023/10/08 09:03:07;;;;;;;14.15;2.97;;;;;;;;;;5075333;28;20124;-84
2023/10/08 09:05:36;;;;;;;7.55;1.50;;;;;;;;;;5054033;28;20145;-85
2023/10/08 09:08:06;;;;;;;9.18;1.60;;;;;;;;;;5069719;28;20161;-85
2023/10/08 09:13:25;;;;;;;9.30;1.67;;;;;;;;;;5068557;28;20048;-85
2023/10/08 09:15:51;;;;;;;6.85;1.90;;;;;;;;;;5088010;28;20052;-85
2023/10/08 09:18:17;;;;;;;9.18;1.60;;;;;;;;;;5054589;28;20068;-84
2023/10/08 09:20:44;;;;;;;10.30;1.55;;;;;;;;;;5073549;28;20060;-85
2023/10/08 09:23:13;;;;;;;8.10;1.55;;;;;;;;;;5068567;28;20155;-84
2023/10/08 09:25:40;;;;;;;8.05;1.60;;;;;;;;;;5075857;28;20045;-85
2023/10/08 09:28:07;;;;;;;5.80;1.80;;;;;;;;;;5062320;28;20107;-84
2023/10/08 09:30:37;;;;;;;8.20;2.38;;;;;;;;;;5255098;22;20053;-83
2023/10/08 09:33:08;;;;;;;8.50;1.40;;;;;;;;;;4987076;28;20046;-84
2023/10/08 09:35:36;;;;;;;10.60;1.80;;;;;;;;;;4990032;28;20072;-84
2023/10/08 09:38:09;;;;;;;10.65;1.48;;;;;;;;;;4992591;28;20038;-83
2023/10/08 09:40:40;;;;;;;5.20;1.23;;;;;;;;;;4985502;28;20045;-83
2023/10/08 09:43:08;;;;;;;7.10;1.65;;;;;;;;;;4972966;28;20391;-84
2023/10/08 09:45:35;;;;;;;6.18;1.38;;;;;;;;;;4994259;28;20041;-82
2023/10/08 09:48:02;;;;;;;8.80;2.33;;;;;;;;;;4988714;28;20053;-84
2023/10/08 09:50:29;;;;;;;5.57;1.40;;;;;;;;;;5005671;28;20050;-84
2023/10/08 09:52:56;;;;;;;11.18;1.60;;;;;;;;;;4993291;28;20046;-84
2023/10/08 09:55:22;;;;;;;7.20;1.67;;;;;;;;;;4993861;28;20046;-84
2023/10/08 09:57:51;;;;;;;8.27;1.52;;;;;;;;;;4989780;28;20077;-82
2023/10/08 10:00:29;;;;;;;8.35;1.70;;;;;;;;;;4969629;28;20378;-82
2023/10/08 10:02:55;;;;;;;3.97;1.17;;;;;;;;;;4975558;28;20097;-82
2023/10/08 10:05:22;;;;;;;6.57;1.42;;;;;;;;;;4987922;28;20034;-84
2023/10/08 10:07:48;;;;;;;7.47;1.20;;;;;;;;;;5006545;28;20133;-83
2023/10/08 10:10:33;;;;;;;9.30;1.60;;;;;;;;;;5002334;28;20045;-82
2023/10/08 10:13:09;;;;;;;5.57;1.40;;;;;;;;;;4995453;28;20596;-84
2023/10/08 10:15:37;;;;;;;7.35;1.50;;;;;;;;;;4967607;28;21102;-83
2023/10/08 10:18:19;;;;;;;11.05;1.50;;;;;;;;;;5010536;28;20500;-83
2023/10/08 10:20:46;;;;;;;6.35;1.55;;;;;;;;;;4987884;28;20184;-84
2023/10/08 10:23:36;;;;;;;8.40;1.48;;;16.20;99.90;;;;;;5007846;28;20041;-84
2023/10/08 10:26:02;;;;;;;8.32;1.45;;;;;;;;;;4994852;28;20132;-83
2023/10/08 10:28:29;;;;;;;11.38;1.65;;;;;;;;;;4978087;28;20030;-84
2023/10/08 10:30:56;;;;;;;5.15;1.38;;;;;;;;;;4989892;28;20417;-83
2023/10/08 10:33:30;;;;;;;10.02;1.88;;;;;;;;;;4992419;28;20037;-83
2023/10/08 10:35:56;;;;;;;9.18;1.98;;;;;;;;;;4989038;28;20575;-83
2023/10/08 10:38:26;;;;;;;8.73;1.25;;;;;;;;;;4991436;28;20049;-83
2023/10/08 10:40:58;;;;;;;9.52;1.92;;;;;;;;;;5003346;28;20054;-84
2023/10/08 10:43:33;;;;;;;4.65;1.00;;;;;;;;;;5007617;28;20038;-84
2023/10/08 10:46:19;;;;;;;10.23;1.38;;;;;;;;;;4989189;28;20038;-85
2023/10/08 10:48:57;;;;;;;8.60;1.60;;;;;;;;;;4997731;28;20119;-82
2023/10/08 10:51:23;;;;;;;6.22;1.25;;;;;;;;;;5002315;28;20096;-84
2023/10/08 10:54:08;;;;;;;8.90;1.30;;;;;;;;;;4990816;28;20037;-84
2023/10/08 10:56:42;;;;;;;7.43;1.38;;;;;;;;;;4997049;28;20042;-85
2023/10/08 10:59:18;;;;;;;5.75;1.30;;;;;;;;;;5003171;28;20050;-85
2023/10/08 11:01:52;;;;;;;6.10;1.25;;;;;;;;;;5006704;28;20121;-84
2023/10/08 11:04:19;;;;;;;9.20;1.50;;;;;;;;;;4987946;28;20161;-84
2023/10/08 11:06:47;;;;;;;6.45;1.30;;;;;;;;;;4986920;28;20042;-84
2023/10/08 11:09:15;;;;;;;10.77;2.25;;;;;;;;;;5000790;28;20065;-84
2023/10/08 11:11:43;;;;;;;11.55;1.65;;;;;;;;;;4983339;28;20044;-86
2023/10/08 11:14:15;;;;;;;8.40;1.20;;;;;;;;;;4984553;28;20095;-85
2023/10/08 11:16:43;;;;;;;7.88;1.42;;;;;;;;;;4998285;28;20046;-84
2023/10/08 11:19:09;;;;;;;9.15;1.42;;;;;;;;;;5003717;28;20489;-84
2023/10/08 11:21:53;;;;;;;10.25;1.95;;;;;;;;;;4985309;28;20037;-86
2023/10/08 11:24:37;;;;;;;10.52;1.63;;;;;;;;;;4998761;28;20042;-86
2023/10/08 11:27:17;;;;;;;6.35;1.50;;;;;;;;;;4986177;28;20038;-85
2023/10/08 11:29:47;;;;;;;9.20;1.42;;;;;;;;;;4984124;28;20125;-84
2023/10/08 11:32:15;;;;;;;9.65;1.33;;;;;;;;;;4990476;28;20080;-85
2023/10/08 11:34:41;;;;;;;10.77;2.53;;;;;;;;;;4991812;28;20042;-85
2023/10/08 11:37:19;;;;;;;10.82;1.60;;;;;;;;;;4989525;28;20046;-84
2023/10/08 11:39:46;;;;;;;8.57;1.70;;;;;;;;;;5001471;28;20053;-84
2023/10/08 11:44:59;;;;;;;13.20;2.40;;;;;;;;;;4989928;28;20054;-84
2023/10/08 11:47:31;;;;;;;7.30;1.58;;;;;;;;;;4990599;28;20428;-84
2023/10/08 11:50:09;;;;;;;8.57;1.65;;;;;;;;;;5007935;28;20801;-87
2023/10/08 11:52:41;;;;;;;9.30;1.60;;;;;;;;;;4992852;28;20061;-79
2023/10/08 11:55:07;;;;;;;12.63;1.63;;;;;;;;;;4980068;28;20036;-86
2023/10/08 11:57:35;;;;;;;8.15;2.10;;;;;;;;;;4990477;28;20033;-85
2023/10/08 12:00:18;;;;;;;9.68;1.73;;;;;;;;;;4994627;28;20049;-86
2023/10/08 12:02:45;;;;;;;5.80;1.30;;;;;;;;;;4981085;28;20038;-85
2023/10/08 12:05:18;;;;;;;6.53;1.25;;;;;;;;;;4974113;28;20447;-84
2023/10/08 12:07:48;;;;;;;7.28;1.48;;;;;;;;;;4997312;28;20073;-82
2023/10/08 12:10:17;;;;;;;12.65;1.80;;;;;;;;;;4992775;28;20033;-85
2023/10/08 12:12:45;;;;;;;9.55;1.80;;;;;;;;;;5008706;28;20071;-85
2023/10/08 12:15:19;;;;;;;7.40;1.52;;;;;;;;;;4983300;28;20053;-85
2023/10/08 12:17:52;;;;;;;10.18;1.52;;;;;;;;;;5005157;28;20052;-85
2023/10/08 12:20:27;;;;;;;11.98;1.77;;;;;;;;;;4984880;28;20076;-85
2023/10/08 12:22:53;;;;;;;8.02;1.42;;;;;;;;;;4981090;28;20524;-86
2023/10/08 12:25:20;;;;;;;5.68;1.65;;;;;;;;;;4979921;28;20045;-86
2023/10/08 12:27:47;;;;;;;7.63;1.90;;;;;;;;;;4993362;28;20037;-86
2023/10/08 12:30:13;;;;;;;7.65;1.42;;;;;;;;;;4997084;28;20049;-86
2023/10/08 12:32:42;;;;;;;5.65;1.58;;;;;;;;;;4992344;28;21811;-84
2023/10/08 12:35:14;;;;;;;5.90;1.90;;;;;;;;;;4975622;28;20391;-86
2023/10/08 12:37:40;;;;;;;8.50;1.50;;;;;;;;;;4990898;28;20056;-86
2023/10/08 12:40:22;;;;;;;7.88;1.73;;;;;;;;;;4983856;28;20064;-86
2023/10/08 12:42:50;;;;;;;9.23;1.80;;;;;;;;;;5001713;28;20046;-86
2023/10/08 12:45:20;;;;;;;6.45;1.42;;;;;;;;;;4990618;28;20050;-84
2023/10/08 12:47:52;;;;;;;8.18;1.85;;;;;;;;;;5005033;28;20042;-87
2023/10/08 12:50:38;;;;;;;7.45;1.20;;;;;;;;;;5006857;28;20369;-90
2023/10/08 12:53:05;;;;;;;8.02;1.52;;;;;;;;;;4992733;28;20037;-86
2023/10/08 12:55:31;;;;;;;9.75;2.40;;;;;;;;;;5014804;28;20057;-86
2023/10/08 12:58:05;;;;;;;8.32;1.58;;;;;;;;;;4987741;28;20046;-87
2023/10/08 13:00:32;;;;;;;6.32;1.70;;;;;;;;;;4987913;28;20045;-83
2023/10/08 13:03:01;;;;;;;4.70;1.30;;;;;;;;;;5002251;28;20175;-83
2023/10/08 13:05:27;;;;;;;6.10;1.48;;;;;;;;;;4987484;28;20037;-83
2023/10/08 13:07:55;;;;;;;6.32;1.50;;;;;;;;;;4997781;28;20064;-83
2023/10/08 13:10:22;;;;;;;9.23;1.55;;;;;;;;;;5006352;28;20053;-83
2023/10/08 13:12:48;;;;;;;14.00;2.28;;;;;;;;;;5011399;28;20396;-82
2023/10/08 13:15:14;;;;;;;9.93;1.73;;;;;;;;;;4994804;28;20045;-83
2023/10/08 13:17:42;;;;;;;5.95;1.30;;;;;;;;;;4995215;28;20049;-83
2023/10/08 13:20:17;;;;;;;8.63;1.75;;;;;;;;;;5007242;28;20045;-82
2023/10/08 13:22:44;;;;;;;5.82;1.63;;;;;;;;;;5009416;28;20037;-83
2023/10/08 13:25:12;;;;;;;10.45;2.08;;;;;;;;;;5016497;28;20050;-83
2023/10/08 13:27:39;;;;;;;5.63;1.30;;;;;;;;;;4980425;28;20034;-82
2023/10/08 13:30:11;;;;;;;5.93;1.80;;;;;;;;;;4991117;28;20411;-82
2023/10/08 13:32:38;;;;;;;7.53;1.80;;;;;;;;;;4987450;28;20523;-83
2023/10/08 13:35:05;;;;;;;8.68;1.50;;;;;;;;;;4995946;28;20049;-83
2023/10/08 13:37:35;;;;;;;8.20;1.33;;;;;;;;;;4981572;28;20045;-84
2023/10/08 13:40:01;;;;;;;7.75;1.05;;;;;;;;;;5009794;28;20069;-84
2023/10/08 13:42:27;;;;;;;6.88;1.63;;;;;;;;;;4977763;28;20119;-84
2023/10/08 13:44:57;;;;;;;9.43;1.48;;;;;;;;;;4995284;28;20034;-84
2023/10/08 13:47:25;;;;;;;10.73;1.80;;;;;;;;;;4995746;28;20034;-84
2023/10/08 13:49:57;;;;;;;13.85;2.35;;;;;;;;;;4991728;28;20068;-83
2023/10/08 13:52:26;;;;;;;6.65;1.30;;;;;;;;;;4975234;28;20069;-84
2023/10/08 13:54:55;;;;;;;9.77;1.38;;;;;;;;;;5010155;28;20535;-84
2023/10/08 13:57:21;;;;;;;8.20;1.40;;;;;;;;;;5005487;28;20446;-83
2023/10/08 13:59:48;;;;;;;9.02;1.90;;;;;;;;;;5005089;28;20033;-83
2023/10/08 14:02:15;;;;;;;7.07;1.50;;;;;;;;;;4993593;28;20091;-84
2023/10/08 14:04:44;;;;;;;5.85;1.40;;;;;;;;;;5008012;28;20045;-83
2023/10/08 14:07:17;;;;;;;10.18;1.60;;;;;;;;;;4993701;28;20041;-83
2023/10/08 14:09:45;;;;;;;4.85;1.40;;;;;;;;;;5009710;28;20041;-82
2023/10/08 14:12:11;;;;;;;10.48;1.88;;;;;;;;;;5009020;28;20436;-83
2023/10/08 14:14:43;;;;;;;7.60;1.67;;;;;;;;;;4997996;28;20053;-82
2023/10/08 14:17:14;;;;;;;11.65;1.60;;;;;;;;;;4997274;28;20559;-84
2023/10/08 14:19:46;;;;;;;8.35;1.77;;;;;;;;;;5007124;28;20493;-83
2023/10/08 14:22:16;;;;;;;5.10;1.23;;;;;;;;;;4987446;28;20045;-85
2023/10/08 14:24:45;;;;;;;5.53;1.60;;;;;;;;;;4987956;28;20087;-84
2023/10/08 14:27:11;;;;;;;9.90;1.60;;;;;;;;;;5011871;28;20489;-83
2023/10/08 14:29:40;;;;;;;8.25;2.13;;;;;;;;;;4992987;28;20041;-83
2023/10/08 14:32:10;;;;;;;7.18;1.70;;;;;;;;;;4989504;28;20058;-84
2023/10/08 14:45:27;;;;;;;7.45;1.45;;;;;;;;;;4993327;28;20096;-84
2023/10/08 14:47:55;;;;;;;9.48;1.10;;;;;;;;;;4983769;28;20042;-83
2023/10/08 14:50:22;;;;;;;8.32;1.77;;;;;;;;;;4987447;28;20042;-85
2023/10/08 14:52:49;;;;;;;6.63;1.60;;;;;;;;;;5003621;28;20113;-84
2023/10/08 14:55:16;;;;;;;5.43;1.60;;;;;;;;;;5001601;28;20046;-84
2023/10/08 14:57:42;;;;;;;9.45;1.70;;;;;;;;;;5007466;28;20042;-83
2023/10/08 15:00:10;;;;;;;7.80;1.73;;;;;;;;;;4971052;28;20044;-83
2023/10/08 15:02:37;;;;;;;8.30;1.35;;;;;;;;;;5002519;28;20124;-84
2023/10/08 15:05:05;;;;;;;8.25;1.50;;;;;;;;;;4985765;28;20053;-83
2023/10/08 15:07:32;;;;;;;5.00;1.70;;;;;;;;;;5002908;28;20069;-84
2023/10/08 15:10:00;;;;;;;9.32;1.88;;;;;;;;;;5000088;28;20046;-84
2023/10/08 15:12:34;;;;;;;9.93;1.55;;;;;;;;;;5008884;28;21302;-83
2023/10/08 15:15:12;;;;;;;9.20;1.80;;;;;;;;;;4985069;28;20038;-84
2023/10/08 15:17:39;;;;;;;7.43;2.92;;;;;;;;;;4997498;28;20030;-84
2023/10/08 15:20:06;;;;;;;8.20;1.98;;;;;;;;;;4982229;28;20053;-80
2023/10/08 15:22:32;;;;;;;10.43;1.73;;;;;;;;;;4986276;28;20053;-85
2023/10/08 15:24:59;;;;;;;8.98;1.35;;;;;;;;;;4996857;28;20435;-84
2023/10/08 15:27:25;;;;;;;6.70;1.27;;;;;;;;;;4984953;28;20621;-84
2023/10/08 15:29:51;;;;;;;11.95;1.95;;;;;;;;;;4986640;28;20046;-83
2023/10/08 15:32:17;;;;;;;12.05;1.83;;;;;;;;;;5002840;28;20046;-84
2023/10/08 15:34:43;;;;;;;7.40;1.55;;;;;;;;;;4978199;28;20120;-82
2023/10/08 15:37:09;;;;;;;10.40;1.70;;;;;;;;;;4974704;28;20045;-83
2023/10/08 15:39:35;;;;;;;9.35;1.50;;;;;;;;;;4992945;28;20045;-84
2023/10/08 15:42:01;;;;;;;7.22;1.42;;;;;;;;;;4993939;28;20052;-84
2023/10/08 15:44:28;;;;;;;11.60;2.15;;;;;;;;;;4986244;28;20049;-83
2023/10/08 15:46:54;;;;;;;8.68;2.63;;;;;;;;;;4975103;28;20509;-83
2023/10/08 15:49:20;;;;;;;13.93;4.57;;;;;;;;;;5004168;28;20566;-83
2023/10/08 15:51:49;;;;;;;17.33;5.75;;;;;;;;;;4988143;28;20112;-83
2023/10/08 15:54:20;;;;;;;18.75;6.03;;;;;;;;;;4973412;28;20041;-82
2023/10/08 15:56:46;;;;;;;12.10;3.20;;;;;;;;;;4988748;28;20046;-83
2023/10/08 15:59:12;;;;;;;10.23;1.77;;;;;;;;;;4989300;28;20072;-83
2023/10/08 16:01:41;;;;;;;6.13;1.80;;;;;;;;;;4988429;28;20050;-83
2023/10/08 16:04:07;;;;;;;8.82;2.00;;;;;;;;;;4989252;28;20073;-83